Abbott Park, Illinois
Current Conditions -  °F | °C
As of 7:55 PM on Wednesday 26 Nov 2014 (Local Time) from KUGN Reporting Station
Haze Haze  
Wind Chill: 20°   Ceiling: 2200
Heat Index: 27°   Visibility: 6mi
Dew Point: 23°   Wind: 6mph
Humidity: 85%   Direction: 320°NW
Pressure: 30.14"   Gusts: NA
Location:  42.3271°N, 87.865°W
Report Text: KUGN 270155Z AUTO 32005KT 6SM BR OVC022 M03/M05 A3014 RMK AO2 SLP223 T10281050
Loading
Personal Weather Stations






























Interactive Weather Map New forecast layout! Learn more

10-Day Weather Forecast

Advertisements
Track Severe Weather on mobile